createdAt,value
2022-12-04T00:01:22.681Z,58.77
2022-12-04T00:03:52.973Z,64.23
2022-12-04T00:06:20.679Z,59.70
2022-12-04T00:08:48.239Z,64.70
2022-12-04T00:11:18.419Z,59.13
2022-12-04T00:13:45.659Z,54.47
2022-12-04T00:16:15.729Z,57.50
2022-12-04T00:18:42.554Z,57.80
2022-12-04T00:21:11.634Z,62.20
2022-12-04T00:23:39.381Z,64.87
2022-12-04T00:26:09.793Z,66.40
2022-12-04T00:28:37.245Z,64.47
2022-12-04T00:31:30.642Z,63.63
2022-12-04T00:33:57.739Z,62.33
2022-12-04T00:36:27.612Z,63.83
2022-12-04T00:38:55.187Z,62.33
2022-12-04T00:41:26.983Z,60.90
2022-12-04T00:43:54.119Z,57.57
2022-12-04T00:46:21.740Z,62.23
2022-12-04T00:48:48.753Z,57.00
2022-12-04T00:51:19.517Z,58.83
2022-12-04T00:53:46.626Z,54.93
2022-12-04T00:56:20.332Z,58.27
2022-12-04T00:58:47.695Z,62.77
2022-12-04T01:01:18.139Z,59.07
2022-12-04T01:03:45.272Z,60.57
2022-12-04T01:06:24.291Z,56.23
2022-12-04T01:08:52.650Z,61.33
2022-12-04T01:11:20.657Z,59.27
2022-12-04T01:13:47.262Z,59.80
2022-12-04T01:16:35.621Z,58.87
2022-12-04T01:19:03.034Z,57.47
2022-12-04T01:21:29.674Z,61.10
2022-12-04T01:23:57.157Z,46.53
2022-12-04T01:26:24.035Z,54.73
2022-12-04T01:28:50.909Z,57.43
2022-12-04T01:31:19.913Z,62.50
2022-12-04T01:33:47.815Z,51.47
2022-12-04T01:36:17.617Z,56.60
2022-12-04T01:38:45.124Z,53.47
2022-12-04T01:41:13.123Z,55.30
2022-12-04T01:43:40.933Z,55.17
2022-12-04T01:46:08.836Z,52.30
2022-12-04T01:48:44.004Z,54.23
2022-12-04T01:51:34.467Z,54.10
2022-12-04T01:54:05.688Z,49.83
2022-12-04T01:56:41.019Z,55.97
2022-12-04T01:59:09.188Z,60.17
2022-12-04T02:01:42.634Z,54.00
2022-12-04T02:04:09.370Z,59.13
2022-12-04T02:06:36.028Z,56.53
2022-12-04T02:09:02.899Z,51.17
2022-12-04T02:11:41.980Z,49.43
2022-12-04T02:14:42.278Z,50.10
2022-12-04T02:17:14.790Z,46.37
2022-12-04T02:20:10.219Z,53.93
2022-12-04T02:22:54.844Z,51.80
2022-12-04T02:25:44.018Z,49.60
2022-12-04T02:28:24.060Z,61.33
2022-12-04T02:30:56.285Z,51.43
2022-12-04T02:33:35.678Z,53.97
2022-12-04T02:36:11.464Z,52.47
2022-12-04T02:39:07.343Z,57.63
2022-12-04T02:41:43.631Z,55.70
2022-12-04T02:44:44.957Z,51.17
2022-12-04T02:47:14.125Z,55.90
2022-12-04T02:49:45.921Z,49.17
2022-12-04T02:52:17.081Z,49.57
2022-12-04T02:54:49.488Z,51.37
2022-12-04T02:57:23.140Z,49.27
2022-12-04T02:59:51.934Z,50.03
2022-12-04T03:02:25.192Z,46.83
2022-12-04T03:04:55.112Z,42.30
2022-12-04T03:07:34.236Z,50.30
2022-12-04T03:10:08.514Z,52.67
2022-12-04T03:13:04.959Z,42.70
2022-12-04T03:15:39.987Z,48.17
2022-12-04T03:18:16.545Z,45.50
2022-12-04T03:20:46.935Z,45.97
2022-12-04T03:23:19.205Z,42.00
2022-12-04T03:26:05.260Z,43.67
2022-12-04T03:28:42.628Z,44.87
2022-12-04T03:31:10.878Z,40.97
2022-12-04T03:33:47.404Z,44.27
2022-12-04T03:36:18.434Z,45.50
2022-12-04T03:39:01.405Z,40.57
2022-12-04T03:42:04.692Z,44.47
2022-12-04T03:44:41.313Z,45.93
2022-12-04T03:47:18.846Z,46.07
2022-12-04T03:50:23.019Z,45.80
2022-12-04T03:53:06.928Z,45.33
2022-12-04T03:55:43.874Z,46.40
2022-12-04T03:58:16.252Z,46.93
2022-12-04T04:00:44.400Z,44.10
2022-12-04T04:03:24.016Z,45.30
2022-12-04T04:05:54.812Z,48.53
2022-12-04T04:08:26.612Z,45.97
2022-12-04T04:11:02.619Z,47.07
2022-12-04T04:13:58.224Z,47.70
2022-12-04T04:16:46.643Z,44.80
2022-12-04T04:19:34.730Z,45.47
2022-12-04T04:22:24.037Z,43.20
2022-12-04T04:24:54.903Z,43.67
2022-12-04T04:27:21.552Z,44.90
2022-12-04T04:29:52.569Z,45.37
2022-12-04T04:32:37.938Z,44.53
2022-12-04T04:35:19.401Z,45.97
2022-12-04T04:38:11.179Z,48.20
2022-12-04T04:40:44.784Z,49.13
2022-12-04T04:43:16.930Z,51.57
2022-12-04T04:46:07.825Z,43.40
2022-12-04T04:48:57.418Z,45.67
2022-12-04T04:51:24.481Z,47.13
2022-12-04T04:53:55.031Z,42.90
2022-12-04T04:56:22.469Z,41.20
2022-12-04T04:58:49.448Z,45.28
2022-12-04T05:01:22.888Z,49.07
2022-12-04T05:03:49.608Z,43.80
2022-12-04T05:06:16.291Z,45.13
2022-12-04T05:08:44.045Z,42.50
2022-12-04T05:11:15.447Z,46.77
2022-12-04T05:13:42.529Z,39.70
2022-12-04T05:16:13.289Z,43.50
2022-12-04T05:18:40.056Z,47.53
2022-12-04T05:21:17.623Z,43.23
2022-12-04T05:23:44.505Z,44.00
2022-12-04T05:26:11.495Z,40.73
2022-12-04T05:28:39.460Z,43.73
2022-12-04T05:31:06.428Z,40.77
2022-12-04T05:33:33.100Z,48.40
2022-12-04T05:36:01.587Z,47.40
2022-12-04T05:38:28.773Z,41.03
2022-12-04T05:40:58.352Z,36.13
2022-12-04T05:43:25.086Z,39.50
2022-12-04T05:45:51.761Z,36.60
2022-12-04T05:48:18.389Z,36.93
2022-12-04T05:50:45.031Z,39.30
2022-12-04T05:53:11.964Z,36.97
2022-12-04T05:55:38.594Z,34.43
2022-12-04T05:58:05.281Z,38.00
2022-12-04T06:00:32.213Z,39.50
2022-12-04T06:05:39.661Z,29.47
2022-12-04T06:08:06.362Z,33.10
2022-12-04T06:10:33.032Z,35.20
2022-12-04T06:12:59.677Z,30.57
2022-12-04T06:15:26.331Z,37.03
2022-12-04T06:17:52.957Z,30.67
2022-12-04T06:20:19.668Z,32.40
2022-12-04T06:22:46.418Z,32.40
2022-12-04T06:25:13.046Z,33.47
2022-12-04T06:27:39.696Z,33.07
2022-12-04T06:30:07.012Z,34.10
2022-12-04T06:32:33.696Z,34.80
2022-12-04T06:35:00.288Z,36.37
2022-12-04T06:37:27.113Z,32.10
2022-12-04T06:39:54.086Z,28.13
2022-12-04T06:42:20.837Z,29.93
2022-12-04T06:44:47.484Z,30.90
2022-12-04T06:47:14.071Z,35.13
2022-12-04T06:49:40.734Z,32.70
2022-12-04T06:52:07.387Z,30.73
2022-12-04T06:54:34.011Z,32.07
2022-12-04T06:57:00.607Z,33.83
2022-12-04T06:59:27.874Z,35.43
2022-12-04T07:01:54.606Z,31.87
2022-12-04T07:04:21.370Z,29.30
2022-12-04T07:06:47.972Z,28.50
2022-12-04T07:09:16.920Z,30.67
2022-12-04T07:11:44.778Z,30.57
2022-12-04T07:14:12.928Z,30.23
2022-12-04T07:16:41.995Z,28.60
2022-12-04T07:19:11.621Z,30.43
2022-12-04T07:21:38.341Z,25.63
2022-12-04T07:24:05.219Z,29.50
2022-12-04T07:26:32.102Z,29.90
2022-12-04T07:28:59.563Z,27.57
2022-12-04T07:31:29.007Z,27.93
2022-12-04T07:33:56.479Z,28.57
2022-12-04T07:36:24.596Z,27.97
2022-12-04T07:38:51.885Z,27.20
2022-12-04T07:41:20.818Z,24.43
2022-12-04T07:43:47.422Z,27.40
2022-12-04T07:46:16.725Z,23.63
2022-12-04T07:48:43.671Z,24.67
2022-12-04T07:51:21.659Z,27.63
2022-12-04T07:53:49.752Z,27.47
2022-12-04T07:56:17.925Z,27.40
2022-12-04T07:58:45.045Z,29.77
2022-12-04T08:01:16.636Z,26.30
2022-12-04T08:03:48.164Z,27.43
2022-12-04T08:06:17.044Z,25.92
2022-12-04T08:08:43.749Z,25.70
2022-12-04T08:11:13.346Z,26.37
2022-12-04T08:13:40.226Z,23.73
2022-12-04T08:16:08.682Z,22.13
2022-12-04T08:18:35.418Z,31.37
2022-12-04T08:21:07.158Z,28.80
2022-12-04T08:23:34.628Z,26.40
2022-12-04T08:26:02.104Z,22.03
2022-12-04T08:28:29.363Z,24.67
2022-12-04T08:31:01.566Z,26.27
2022-12-04T08:33:28.415Z,21.83
2022-12-04T08:35:54.982Z,22.70
2022-12-04T08:38:21.563Z,23.37
2022-12-04T08:40:48.148Z,22.50
2022-12-04T08:43:14.798Z,20.60
2022-12-04T08:45:41.455Z,22.07
2022-12-04T08:48:08.102Z,23.00
2022-12-04T08:50:34.791Z,23.80
2022-12-04T08:53:01.433Z,24.53
2022-12-04T08:55:28.032Z,27.53
2022-12-04T08:57:54.840Z,22.53
2022-12-04T09:00:21.671Z,22.80
2022-12-04T09:02:51.508Z,22.27
2022-12-04T09:05:18.186Z,22.60
2022-12-04T09:07:44.920Z,23.40
2022-12-04T09:10:12.461Z,21.53
2022-12-04T09:12:39.094Z,22.77
2022-12-04T09:15:06.943Z,27.77
2022-12-04T09:17:36.209Z,22.13
2022-12-04T09:20:05.217Z,21.83
2022-12-04T09:22:57.869Z,20.23
2022-12-04T09:25:21.190Z,24.00
2022-12-04T09:27:47.834Z,22.20
2022-12-04T09:30:14.524Z,24.30
2022-12-04T09:32:41.204Z,21.13
2022-12-04T09:35:09.752Z,22.03
2022-12-04T09:37:37.055Z,22.13
2022-12-04T09:40:05.290Z,20.40
2022-12-04T09:42:44.204Z,23.58
2022-12-04T09:45:15.655Z,22.73
2022-12-04T09:47:48.501Z,25.50
2022-12-04T09:50:42.714Z,20.48
2022-12-04T09:53:34.573Z,21.33
2022-12-04T09:56:06.020Z,18.80
2022-12-04T09:58:59.814Z,19.87
2022-12-04T10:01:32.006Z,22.07
2022-12-04T10:04:05.667Z,22.15
2022-12-04T10:06:46.195Z,24.10
2022-12-04T10:09:50.521Z,23.43
2022-12-04T10:12:31.227Z,19.53
2022-12-04T10:15:22.128Z,20.27
2022-12-04T10:18:13.289Z,19.73
2022-12-04T10:20:48.325Z,22.90
2022-12-04T10:23:54.705Z,25.10
2022-12-04T10:26:27.497Z,24.35
2022-12-04T10:29:03.349Z,21.13
2022-12-04T10:31:32.330Z,23.40
2022-12-04T10:34:05.395Z,22.13
2022-12-04T10:36:34.427Z,25.77
2022-12-04T10:39:25.742Z,22.87
2022-12-04T10:42:04.014Z,20.97
2022-12-04T10:44:30.750Z,23.87
2022-12-04T10:47:00.725Z,23.80
2022-12-04T10:49:30.141Z,26.83
2022-12-04T10:51:56.880Z,25.20
2022-12-04T10:54:48.283Z,24.70
2022-12-04T10:57:15.767Z,27.97
2022-12-04T10:59:55.107Z,27.17
2022-12-04T11:02:31.709Z,32.37
2022-12-04T11:05:22.047Z,30.40
2022-12-04T11:07:49.502Z,30.40
2022-12-04T11:10:34.145Z,30.67
2022-12-04T11:13:13.975Z,28.48
2022-12-04T11:15:50.310Z,27.30
2022-12-04T11:18:18.299Z,31.63
2022-12-04T11:20:52.629Z,27.87
2022-12-04T11:23:19.673Z,36.90
2022-12-04T11:26:03.835Z,34.53
2022-12-04T11:28:41.824Z,34.00
2022-12-04T11:31:15.417Z,30.00
2022-12-04T11:33:54.390Z,31.03
2022-12-04T11:36:22.866Z,36.17
2022-12-04T11:38:51.577Z,33.23
2022-12-04T11:41:28.125Z,38.37
2022-12-04T11:43:59.676Z,38.40
2022-12-04T11:46:30.835Z,37.93
2022-12-04T11:48:57.664Z,39.40
2022-12-04T11:51:36.285Z,36.25
2022-12-04T11:54:32.362Z,33.38
2022-12-04T11:57:20.260Z,35.80
2022-12-04T11:59:59.324Z,35.87
2022-12-04T12:02:49.004Z,41.27
2022-12-04T12:05:45.860Z,40.97
2022-12-04T12:08:41.472Z,40.50
2022-12-04T12:11:16.494Z,41.25
2022-12-04T12:14:14.423Z,33.53
2022-12-04T12:16:48.522Z,39.07
2022-12-04T12:19:33.585Z,31.60
2022-12-04T12:22:31.864Z,36.03
2022-12-04T12:25:36.247Z,34.58
2022-12-04T12:28:18.148Z,40.00
2022-12-04T12:31:18.925Z,38.70
2022-12-04T12:33:56.714Z,35.17
2022-12-04T12:36:26.937Z,40.23
2022-12-04T12:39:01.285Z,34.83
2022-12-04T12:42:02.041Z,38.00
2022-12-04T12:44:54.542Z,34.83
2022-12-04T12:47:27.016Z,38.73
2022-12-04T12:50:15.519Z,36.85
2022-12-04T12:52:47.911Z,41.33
2022-12-04T12:55:26.208Z,37.13
2022-12-04T12:58:15.268Z,36.38
2022-12-04T13:01:04.334Z,34.70
2022-12-04T13:03:53.920Z,37.20
2022-12-04T13:06:32.908Z,40.47
2022-12-04T13:09:32.654Z,39.35
2022-12-04T13:12:06.616Z,41.77
2022-12-04T13:14:33.279Z,36.90
2022-12-04T13:17:10.860Z,40.43
2022-12-04T13:19:53.813Z,37.30
2022-12-04T13:22:48.200Z,35.70
2022-12-04T13:25:34.084Z,34.73
2022-12-04T13:28:42.619Z,37.20
2022-12-04T13:31:21.823Z,39.25
2022-12-04T13:34:18.109Z,39.73
2022-12-04T13:37:27.035Z,37.80
2022-12-04T13:40:12.299Z,43.58
2022-12-04T13:42:39.152Z,44.80
2022-12-04T13:45:33.206Z,37.80
2022-12-04T13:48:02.513Z,38.13
2022-12-04T13:50:32.483Z,40.47
2022-12-04T13:53:00.718Z,38.93
2022-12-04T13:55:33.975Z,36.73
2022-12-04T13:58:11.201Z,39.10
2022-12-04T14:00:42.355Z,36.03
2022-12-04T14:03:29.668Z,34.95
2022-12-04T14:05:56.814Z,40.33
2022-12-04T14:08:26.348Z,37.30
2022-12-04T14:11:01.770Z,33.87
2022-12-04T14:13:36.788Z,39.72
2022-12-04T14:16:07.031Z,38.28
2022-12-04T14:18:33.897Z,39.13
2022-12-04T14:21:04.673Z,39.63
2022-12-04T14:23:37.661Z,35.80
2022-12-04T14:26:05.363Z,37.17
2022-12-04T14:28:33.991Z,39.73
2022-12-04T14:31:25.585Z,41.42
2022-12-04T14:34:17.874Z,34.80
2022-12-04T14:36:47.183Z,33.80
2022-12-04T14:39:34.213Z,37.23
2022-12-04T14:42:12.653Z,40.47
2022-12-04T14:44:40.139Z,38.73
2022-12-04T14:47:39.849Z,38.97
2022-12-04T14:50:16.405Z,36.63
2022-12-04T14:52:54.419Z,39.60
2022-12-04T14:56:07.246Z,38.78
2022-12-04T14:58:37.598Z,44.47
2022-12-04T15:01:38.280Z,43.07
2022-12-04T15:04:25.640Z,44.00
2022-12-04T15:06:58.476Z,42.33
2022-12-04T15:09:46.659Z,46.57
2022-12-04T15:12:33.572Z,41.97
2022-12-04T15:15:13.570Z,41.23
2022-12-04T15:17:40.647Z,48.57
2022-12-04T15:20:17.960Z,53.07
2022-12-04T15:22:45.812Z,53.33
2022-12-04T15:25:26.152Z,56.53
2022-12-04T15:27:57.620Z,54.23
2022-12-04T15:30:27.294Z,48.47
2022-12-04T15:32:54.186Z,53.20
2022-12-04T15:35:29.309Z,57.87
2022-12-04T15:37:56.366Z,56.33
2022-12-04T15:40:28.406Z,59.20
2022-12-04T15:43:05.809Z,55.40
2022-12-04T15:45:34.309Z,61.57
2022-12-04T15:48:01.422Z,66.93
2022-12-04T15:50:30.708Z,56.57
2022-12-04T15:53:04.994Z,61.22
2022-12-04T15:55:39.394Z,60.67
2022-12-04T15:58:17.754Z,60.07
2022-12-04T16:00:44.750Z,54.55
2022-12-04T16:03:31.335Z,56.50
2022-12-04T16:06:21.084Z,62.37
2022-12-04T16:08:55.702Z,56.37
2022-12-04T16:11:25.318Z,61.07
2022-12-04T16:14:09.035Z,61.03
2022-12-04T16:16:38.119Z,56.50
2022-12-04T16:19:09.506Z,57.67
2022-12-04T16:21:36.190Z,58.57
2022-12-04T16:24:04.737Z,57.20
2022-12-04T16:26:31.473Z,61.50
2022-12-04T16:28:59.166Z,59.70
2022-12-04T16:31:26.674Z,55.03
2022-12-04T16:33:53.419Z,51.87
2022-12-04T16:36:20.017Z,54.47
2022-12-04T16:38:46.628Z,55.13
2022-12-04T16:41:15.627Z,58.87
2022-12-04T16:43:42.291Z,56.63
2022-12-04T16:46:16.673Z,67.50
2022-12-04T16:48:43.587Z,68.55
2022-12-04T16:51:18.798Z,62.03
2022-12-04T16:53:45.522Z,58.73
2022-12-04T16:56:12.196Z,58.33
2022-12-04T16:58:38.856Z,58.53
2022-12-04T17:01:12.987Z,55.77
2022-12-04T17:03:39.787Z,61.58
2022-12-04T17:06:06.575Z,52.53
2022-12-04T17:08:33.201Z,47.00
2022-12-04T17:10:59.869Z,46.97
2022-12-04T17:13:26.703Z,56.15
2022-12-04T17:15:53.425Z,52.65
2022-12-04T17:18:21.555Z,56.17
2022-12-04T17:20:48.471Z,47.97
2022-12-04T17:23:15.158Z,47.78
2022-12-04T17:25:41.962Z,47.22
2022-12-04T17:28:08.904Z,51.27
2022-12-04T17:30:36.381Z,50.73
2022-12-04T17:33:04.414Z,61.85
2022-12-04T17:35:31.335Z,44.97
2022-12-04T17:38:03.800Z,41.97
2022-12-04T17:40:32.602Z,46.27
2022-12-04T17:42:59.564Z,42.10
2022-12-04T17:45:26.417Z,42.15
2022-12-04T17:47:53.045Z,42.33
2022-12-04T17:50:19.706Z,43.40
2022-12-04T17:52:46.453Z,42.92
2022-12-04T17:55:13.088Z,40.37
2022-12-04T17:57:39.699Z,36.97
2022-12-04T18:00:08.597Z,40.67
2022-12-04T18:02:41.326Z,39.65
2022-12-04T18:05:09.062Z,45.13
2022-12-04T18:07:35.747Z,38.63
2022-12-04T18:10:02.452Z,38.93
2022-12-04T18:12:29.030Z,41.03
2022-12-04T18:14:55.745Z,42.17
2022-12-04T18:17:22.412Z,42.45
2022-12-04T18:19:49.103Z,42.73
2022-12-04T18:22:15.765Z,39.03
2022-12-04T18:24:42.382Z,43.07
2022-12-04T18:27:09.390Z,41.40
2022-12-04T18:29:36.003Z,40.13
2022-12-04T18:32:02.672Z,39.97
2022-12-04T18:34:29.362Z,40.07
2022-12-04T18:36:56.083Z,42.30
2022-12-04T18:39:24.268Z,47.17
2022-12-04T18:41:51.328Z,47.23
2022-12-04T18:44:18.423Z,45.90
2022-12-04T18:46:45.073Z,48.53
2022-12-04T18:49:12.032Z,44.40
2022-12-04T18:51:41.329Z,44.17
2022-12-04T18:54:12.621Z,44.20
2022-12-04T18:56:39.668Z,39.70
2022-12-04T18:59:18.857Z,42.25
2022-12-04T19:01:49.688Z,39.27
2022-12-04T19:04:18.292Z,39.17
2022-12-04T19:06:47.537Z,39.47
2022-12-04T19:09:17.424Z,49.13
2022-12-04T19:11:45.243Z,36.90
2022-12-04T19:14:22.477Z,38.07
2022-12-04T19:16:50.449Z,38.35
2022-12-04T19:19:17.706Z,35.03
2022-12-04T19:21:44.447Z,38.50
2022-12-04T19:24:11.557Z,40.70
2022-12-04T19:26:38.719Z,37.67
2022-12-04T19:29:06.926Z,39.37
2022-12-04T19:31:36.501Z,42.70
2022-12-04T19:34:03.936Z,35.53
2022-12-04T19:36:32.141Z,39.20
2022-12-04T19:39:00.313Z,35.33
2022-12-04T19:41:34.184Z,36.47
2022-12-04T19:44:01.201Z,34.67
2022-12-04T19:46:30.682Z,34.83
2022-12-04T19:49:01.502Z,38.70
2022-12-04T19:51:31.905Z,34.90
2022-12-04T19:53:58.935Z,32.45
2022-12-04T19:56:27.002Z,32.83
2022-12-04T19:58:56.521Z,33.20
2022-12-04T20:01:25.344Z,39.40
2022-12-04T20:03:52.660Z,34.83
2022-12-04T20:06:21.243Z,37.63
2022-12-04T20:08:53.091Z,32.42
2022-12-04T20:11:19.891Z,38.33
2022-12-04T20:13:48.943Z,39.13
2022-12-04T20:16:19.281Z,36.07
2022-12-04T20:18:46.424Z,34.13
2022-12-04T20:21:13.893Z,33.53
2022-12-04T20:23:42.892Z,39.63
2022-12-04T20:26:11.786Z,36.23
2022-12-04T20:28:39.323Z,30.80
2022-12-04T20:31:27.002Z,32.97
2022-12-04T20:33:55.027Z,38.00
2022-12-04T20:36:23.485Z,36.20
2022-12-04T20:38:52.183Z,36.60
2022-12-04T20:41:20.157Z,32.70
2022-12-04T20:43:47.543Z,36.50
2022-12-04T20:46:26.533Z,35.42
2022-12-04T20:48:53.893Z,35.97
2022-12-04T20:51:23.619Z,37.00
2022-12-04T20:53:51.531Z,42.17
2022-12-04T20:56:20.301Z,39.15
2022-12-04T20:58:47.098Z,39.50
2022-12-04T21:01:16.360Z,33.53
2022-12-04T21:03:44.043Z,36.13
2022-12-04T21:06:19.680Z,37.67
2022-12-04T21:08:53.278Z,35.70
2022-12-04T21:11:21.297Z,36.47
2022-12-04T21:14:06.742Z,33.42
2022-12-04T21:16:33.847Z,34.77
2022-12-04T21:19:01.460Z,39.37
2022-12-04T21:21:28.298Z,46.90
2022-12-04T21:23:54.980Z,35.63
2022-12-04T21:26:22.153Z,39.23
2022-12-04T21:28:48.760Z,43.58
2022-12-04T21:31:15.505Z,46.22
2022-12-04T21:33:42.256Z,44.50
2022-12-04T21:36:09.512Z,37.45
2022-12-04T21:38:37.488Z,36.37
2022-12-04T21:41:06.228Z,38.65
2022-12-04T21:43:33.336Z,39.83
2022-12-04T21:46:09.410Z,45.28
2022-12-04T21:48:36.902Z,43.28
2022-12-04T21:51:16.901Z,44.13
2022-12-04T21:53:48.104Z,46.35
2022-12-04T21:56:14.782Z,39.50
2022-12-04T21:58:41.452Z,41.90
2022-12-04T22:01:12.595Z,47.37
2022-12-04T22:03:39.293Z,39.63
2022-12-04T22:06:06.360Z,45.30
2022-12-04T22:08:36.387Z,42.55
2022-12-04T22:11:06.406Z,48.97
2022-12-04T22:13:33.711Z,40.13
2022-12-04T22:16:06.012Z,46.97
2022-12-04T22:18:33.750Z,43.10
2022-12-04T22:21:04.372Z,46.38
2022-12-04T22:23:31.020Z,42.08
2022-12-04T22:26:04.761Z,45.65
2022-12-04T22:28:31.363Z,45.47
2022-12-04T22:31:09.598Z,46.92
2022-12-04T22:33:37.560Z,49.97
2022-12-04T22:36:10.103Z,45.72
2022-12-04T22:38:52.615Z,52.75
2022-12-04T22:41:25.441Z,47.77
2022-12-04T22:43:52.273Z,45.47
2022-12-04T22:46:19.080Z,51.38
2022-12-04T22:48:45.806Z,45.97
2022-12-04T22:51:15.570Z,45.90
2022-12-04T22:53:43.449Z,49.78
2022-12-04T22:56:16.260Z,49.92
2022-12-04T22:58:44.144Z,46.33
2022-12-04T23:01:25.325Z,48.58
2022-12-04T23:03:53.643Z,44.23
2022-12-04T23:06:22.826Z,42.30
2022-12-04T23:08:53.520Z,40.87
2022-12-04T23:11:21.465Z,42.63
2022-12-04T23:14:02.627Z,44.25
2022-12-04T23:16:31.328Z,44.50
2022-12-04T23:18:58.494Z,43.50
2022-12-04T23:21:25.876Z,44.43
2022-12-04T23:23:54.202Z,44.67
2022-12-04T23:26:23.887Z,35.83
2022-12-04T23:28:50.601Z,36.58
2022-12-04T23:31:17.859Z,37.03
2022-12-04T23:33:45.017Z,42.50
2022-12-04T23:36:12.673Z,45.47
2022-12-04T23:38:40.872Z,40.20
2022-12-04T23:41:12.304Z,38.22
2022-12-04T23:43:39.987Z,39.93
2022-12-04T23:46:15.390Z,45.38
2022-12-04T23:48:43.839Z,48.90
2022-12-04T23:51:11.873Z,48.83
2022-12-04T23:53:38.961Z,40.33
2022-12-04T23:56:10.340Z,38.05
2022-12-04T23:58:37.848Z,40.15
